Terminal Aerodrome Forecast
Issued by NWS

Home | Current Version | Previous Version | Text Only | Print | Product List | Glossary On
Versions: 1 2 3 4 5 6 7 8 9 10 11 12
000
FTUS46 KSEW 281100
TAFHQM
TAF
KHQM 281130Z 2812/2912 27012KT P6SM SCT040 SCT070
      TEMPO 2812/2816 -SHRA BKN035 OVC060
     FM281800 27012KT P6SM VCSH SCT030 BKN050
     FM290400 04006KT P6SM SCT030 BKN060=

USA.gov is the U.S. government's official web portal to all federal, state and local government web resources and services.